Time;durP1;ratioP1;P1;durP2;ratioP2;P2;SDS_P1;SDS_P2;PMS_P1;PMS_P2;Temp;Humidity;BMP_temperature;BMP_pressure;BME280_temperature;BME280_humidity;BME280_pressure;Samples;Min_cycle;Max_cycle;Signal;HPM_P1;HPM_P2
2022/08/30 00:02:13;;;;;;;4.93;2.03;;;20.80;64.60;;;;;;5061146;28;45554;-67
2022/08/30 00:04:40;;;;;;;10.25;2.30;;;20.80;64.00;;;;;;5061887;28;45723;-67
2022/08/30 00:07:07;;;;;;;6.18;2.00;;;20.80;64.90;;;;;;5060250;28;45309;-67
2022/08/30 00:09:34;;;;;;;7.00;2.63;;;20.80;64.80;;;;;;5060076;28;45633;-67
2022/08/30 00:12:01;;;;;;;6.45;1.90;;;20.80;64.70;;;;;;5060854;28;45323;-67
2022/08/30 00:14:28;;;;;;;6.15;2.15;;;20.80;65.00;;;;;;5061530;28;45447;-67
2022/08/30 00:16:55;;;;;;;8.25;2.15;;;20.80;64.90;;;;;;5059902;28;45436;-67
2022/08/30 00:19:23;;;;;;;5.80;1.92;;;20.80;65.50;;;;;;5060045;28;45403;-67
2022/08/30 00:21:50;;;;;;;7.68;1.90;;;20.80;66.60;;;;;;5058363;28;47267;-67
2022/08/30 00:24:17;;;;;;;4.45;1.95;;;20.80;65.70;;;;;;5060083;28;45448;-67
2022/08/30 00:26:43;;;;;;;5.20;1.80;;;20.80;66.00;;;;;;5059752;28;45366;-67
2022/08/30 00:29:10;;;;;;;7.07;1.92;;;20.80;66.00;;;;;;5060877;28;45498;-67
2022/08/30 00:31:37;;;;;;;4.78;1.92;;;20.80;66.10;;;;;;5061584;28;46629;-67
2022/08/30 00:34:04;;;;;;;10.95;2.40;;;20.80;66.30;;;;;;5062898;28;45392;-67
2022/08/30 00:36:32;;;;;;;6.82;1.98;;;20.90;66.70;;;;;;5062822;28;45336;-66
2022/08/30 00:38:58;;;;;;;4.47;2.10;;;20.80;66.60;;;;;;5063244;28;45357;-67
2022/08/30 00:41:25;;;;;;;6.35;2.15;;;20.80;66.90;;;;;;5062446;28;47496;-67
2022/08/30 00:43:52;;;;;;;4.20;2.05;;;20.80;67.40;;;;;;5063245;28;45293;-67
2022/08/30 00:46:19;;;;;;;4.07;1.90;;;20.70;67.60;;;;;;5062505;28;45257;-67
2022/08/30 00:48:48;;;;;;;5.90;2.42;;;20.70;67.80;;;;;;5078254;28;45547;-67
2022/08/30 00:51:16;;;;;;;6.45;1.70;;;20.70;68.20;;;;;;5048171;28;46093;-67
2022/08/30 00:53:48;;;;;;;7.40;1.90;;;20.70;68.20;;;;;;5062945;28;45769;-67
2022/08/30 00:56:15;;;;;;;5.57;1.92;;;20.70;68.50;;;;;;5062023;28;45316;-67
2022/08/30 00:58:45;;;;;;;11.15;2.40;;;20.70;68.30;;;;;;5062980;28;45318;-67
2022/08/30 01:01:11;;;;;;;5.88;1.90;;;20.70;68.80;;;;;;5059439;28;46393;-67
2022/08/30 01:03:39;;;;;;;7.68;1.58;;;20.80;68.50;;;;;;5057709;28;45576;-67
2022/08/30 01:06:06;;;;;;;5.35;1.63;;;20.70;68.80;;;;;;5056686;28;45340;-67
2022/08/30 01:08:34;;;;;;;7.97;2.10;;;20.70;69.10;;;;;;5052555;28;45429;-67
2022/08/30 01:11:04;;;;;;;4.15;1.88;;;20.60;69.40;;;;;;5057870;28;47654;-67
2022/08/30 01:13:33;;;;;;;4.47;2.00;;;20.60;69.90;;;;;;5059186;28;45581;-67
2022/08/30 01:16:01;;;;;;;8.07;2.08;;;20.50;69.70;;;;;;5058472;28;45491;-67
2022/08/30 01:18:28;;;;;;;4.18;1.88;;;20.30;70.40;;;;;;5060459;28;45699;-68
2022/08/30 01:21:02;;;;;;;6.13;2.30;;;20.20;70.00;;;;;;5061496;28;46157;-67
2022/08/30 01:23:33;;;;;;;5.00;2.00;;;20.10;70.40;;;;;;5059621;28;46099;-67
2022/08/30 01:26:02;;;;;;;5.70;2.30;;;20.10;70.40;;;;;;5058765;28;45274;-67
2022/08/30 01:28:30;;;;;;;4.70;2.13;;;20.10;70.80;;;;;;5058714;28;45362;-68
2022/08/30 01:30:57;;;;;;;6.20;2.20;;;20.20;70.90;;;;;;5058700;28;46455;-67
2022/08/30 01:33:24;;;;;;;6.82;2.15;;;20.20;71.60;;;;;;5060120;28;45519;-67
2022/08/30 01:35:59;;;;;;;6.90;1.90;;;20.20;71.90;;;;;;5064663;28;45298;-67
2022/08/30 01:38:30;;;;;;;5.82;1.75;;;20.20;71.50;;;;;;5062149;28;45483;-67
2022/08/30 01:40:59;;;;;;;6.80;2.10;;;20.20;72.00;;;;;;5064184;28;46424;-67
2022/08/30 01:43:27;;;;;;;3.25;1.75;;;20.20;72.40;;;;;;5061524;28;45314;-67
2022/08/30 01:45:54;;;;;;;5.65;1.90;;;20.10;72.10;;;;;;5064239;28;45385;-67
2022/08/30 01:48:21;;;;;;;5.13;2.10;;;20.10;72.40;;;;;;5062114;28;45614;-67
2022/08/30 01:50:48;;;;;;;7.10;2.45;;;20.10;72.60;;;;;;5063002;28;45532;-67
2022/08/30 01:53:15;;;;;;;5.05;2.00;;;20.10;73.50;;;;;;5062267;28;45601;-67
2022/08/30 01:55:42;;;;;;;5.50;2.28;;;20.10;73.20;;;;;;5066470;28;45440;-67
2022/08/30 01:58:10;;;;;;;4.75;1.92;;;20.20;73.30;;;;;;5062818;28;45481;-67
2022/08/30 02:00:37;;;;;;;6.63;2.05;;;20.20;73.50;;;;;;5063299;28;47549;-67
2022/08/30 02:03:04;;;;;;;5.20;1.98;;;20.20;73.80;;;;;;5061728;28;45305;-67
2022/08/30 02:05:31;;;;;;;8.73;2.45;;;20.20;73.80;;;;;;5062443;28;45277;-67
2022/08/30 02:07:58;;;;;;;6.97;2.13;;;20.10;74.00;;;;;;5060201;28;45467;-67
2022/08/30 02:10:25;;;;;;;2.38;1.60;;;20.10;74.10;;;;;;5061009;28;46093;-67
2022/08/30 02:12:52;;;;;;;5.03;1.90;;;20.10;74.90;;;;;;5064284;28;45395;-67
2022/08/30 02:15:20;;;;;;;6.10;1.85;;;20.20;74.00;;;;;;5062324;28;45433;-67
2022/08/30 02:17:47;;;;;;;3.78;2.00;;;20.20;74.50;;;;;;5062368;28;45551;-67
2022/08/30 02:20:14;;;;;;;5.50;2.30;;;20.20;74.70;;;;;;5061816;28;48012;-66
2022/08/30 02:22:41;;;;;;;8.85;2.30;;;20.20;74.50;;;;;;5061107;28;45518;-67
2022/08/30 02:25:08;;;;;;;7.38;2.20;;;20.20;74.40;;;;;;5061167;28;45459;-67
2022/08/30 02:27:35;;;;;;;7.03;2.40;;;20.20;75.10;;;;;;5062181;28;45301;-67
2022/08/30 02:30:04;;;;;;;5.43;2.10;;;20.20;75.40;;;;;;5063765;28;48062;-67
2022/08/30 02:32:32;;;;;;;4.88;2.03;;;20.20;75.50;;;;;;5064665;28;45431;-67
2022/08/30 02:34:59;;;;;;;6.53;1.88;;;20.20;75.30;;;;;;5064645;28;45613;-66
2022/08/30 02:37:26;;;;;;;4.82;2.25;;;20.20;75.10;;;;;;5051510;28;45425;-67
2022/08/30 02:39:53;;;;;;;5.30;2.17;;;20.20;75.60;;;;;;5064498;28;46714;-67
2022/08/30 02:42:19;;;;;;;5.47;1.88;;;20.30;75.40;;;;;;5059810;28;45749;-67
2022/08/30 02:44:46;;;;;;;8.57;2.20;;;20.30;75.60;;;;;;5062633;28;45423;-67
2022/08/30 02:47:13;;;;;;;3.78;2.25;;;20.20;76.10;;;;;;5060789;28;45364;-66
2022/08/30 02:49:41;;;;;;;7.00;2.63;;;20.30;76.50;;;;;;5062545;28;46581;-67
2022/08/30 02:52:08;;;;;;;4.20;2.17;;;20.30;76.40;;;;;;5059631;28;45507;-67
2022/08/30 02:54:35;;;;;;;8.20;2.58;;;20.30;76.50;;;;;;5063347;28;45407;-67
2022/08/30 02:57:03;;;;;;;5.88;2.15;;;20.30;76.50;;;;;;5060483;28;45448;-67
2022/08/30 02:59:31;;;;;;;11.20;2.65;;;20.30;76.50;;;;;;5061518;28;47262;-67
2022/08/30 03:01:58;;;;;;;10.15;2.42;;;20.20;77.00;;;;;;5060620;28;45910;-67
2022/08/30 03:04:25;;;;;;;8.95;2.35;;;20.30;77.00;;;;;;5060853;28;45562;-66
2022/08/30 03:06:53;;;;;;;10.13;2.45;;;20.20;77.60;;;;;;5060546;28;45395;-67
2022/08/30 03:09:21;;;;;;;7.65;2.42;;;20.30;79.40;;;;;;5059104;28;46070;-67
2022/08/30 03:11:47;;;;;;;9.05;2.30;;;20.30;77.00;;;;;;5058972;28;45323;-67
2022/08/30 03:14:14;;;;;;;6.53;2.50;;;20.30;78.60;;;;;;5060036;28;45401;-66
2022/08/30 03:16:41;;;;;;;8.43;2.33;;;20.30;77.40;;;;;;5061662;28;45316;-67
2022/08/30 03:19:08;;;;;;;5.25;2.15;;;20.30;77.50;;;;;;5059715;28;47452;-67
2022/08/30 03:21:36;;;;;;;5.50;2.25;;;20.30;77.90;;;;;;5062654;28;45454;-67
2022/08/30 03:24:06;;;;;;;4.88;1.98;;;20.20;77.90;;;;;;5059038;28;45425;-67
2022/08/30 03:26:33;;;;;;;6.95;2.53;;;20.20;78.40;;;;;;5061671;28;45322;-67
2022/08/30 03:29:00;;;;;;;4.80;2.30;;;20.30;77.90;;;;;;5061801;28;48044;-68
2022/08/30 03:31:26;;;;;;;10.02;2.45;;;20.30;78.50;;;;;;5062034;28;45274;-67
2022/08/30 03:33:53;;;;;;;4.75;2.22;;;20.30;78.50;;;;;;5064291;28;45346;-67
2022/08/30 03:36:20;;;;;;;8.95;2.45;;;20.20;78.40;;;;;;5062259;28;45558;-67
2022/08/30 03:38:47;;;;;;;8.98;2.40;;;20.20;78.40;;;;;;5062097;28;45368;-67
2022/08/30 03:41:16;;;;;;;9.93;2.72;;;20.20;78.90;;;;;;5061278;28;45598;-67
2022/08/30 03:43:42;;;;;;;8.00;2.70;;;20.10;78.40;;;;;;5062792;28;45459;-67
2022/08/30 03:46:12;;;;;;;7.20;2.55;;;20.10;78.80;;;;;;5061382;28;45610;-67
2022/08/30 03:48:39;;;;;;;14.07;2.72;;;20.10;78.90;;;;;;5063611;28;47358;-67
2022/08/30 03:51:06;;;;;;;5.45;2.20;;;20.20;79.10;;;;;;5063569;28;46172;-66
2022/08/30 03:53:33;;;;;;;4.45;2.28;;;20.10;79.80;;;;;;5063000;28;45298;-66
2022/08/30 03:56:00;;;;;;;11.70;2.65;;;20.00;78.30;;;;;;5060630;28;45459;-67
2022/08/30 03:58:28;;;;;;;9.13;2.97;;;19.90;78.90;;;;;;5058322;28;45499;-66
2022/08/30 04:00:55;;;;;;;5.63;2.78;;;19.90;79.60;;;;;;5061518;28;45299;-67
2022/08/30 04:03:24;;;;;;;9.60;2.65;;;19.80;79.80;;;;;;5063764;28;45468;-68
2022/08/30 04:05:51;;;;;;;7.35;2.53;;;19.90;81.30;;;;;;5060618;28;45589;-67
2022/08/30 04:08:19;;;;;;;8.02;2.97;;;19.90;80.00;;;;;;5058335;28;45327;-67
2022/08/30 04:10:46;;;;;;;9.57;3.00;;;19.90;81.50;;;;;;5061352;28;45450;-67
2022/08/30 04:13:13;;;;;;;6.30;2.65;;;19.90;81.40;;;;;;5060119;28;45467;-66
2022/08/30 04:15:41;;;;;;;7.57;2.75;;;19.90;82.10;;;;;;5056637;28;45555;-67
2022/08/30 04:18:08;;;;;;;6.35;2.60;;;20.00;81.40;;;;;;5055521;28;46260;-67
2022/08/30 04:20:35;;;;;;;6.88;2.55;;;20.00;81.50;;;;;;5058717;28;46447;-68
2022/08/30 04:23:02;;;;;;;8.10;3.25;;;20.00;81.60;;;;;;5059348;28;45313;-68
2022/08/30 04:25:29;;;;;;;6.88;2.40;;;20.00;82.10;;;;;;5058050;28;45758;-67
2022/08/30 04:27:55;;;;;;;5.75;2.60;;;19.80;82.30;;;;;;5059174;28;48050;-68
2022/08/30 04:30:22;;;;;;;10.52;2.58;;;19.80;82.50;;;;;;5058162;28;45372;-67
2022/08/30 04:32:50;;;;;;;12.45;3.13;;;19.80;82.70;;;;;;5060249;28;45427;-67
2022/08/30 04:35:17;;;;;;;5.38;2.25;;;19.80;83.20;;;;;;5055608;28;45446;-68
2022/08/30 04:37:44;;;;;;;7.68;2.92;;;19.70;83.20;;;;;;5059199;28;46074;-67
2022/08/30 04:40:12;;;;;;;6.13;2.50;;;19.70;83.50;;;;;;5059597;28;45277;-67
2022/08/30 04:42:40;;;;;;;13.60;3.10;;;19.70;83.60;;;;;;5054440;28;45452;-68
2022/08/30 04:45:10;;;;;;;8.52;2.35;;;19.70;83.30;;;;;;5060528;28;45480;-67
2022/08/30 04:47:37;;;;;;;6.45;2.70;;;19.70;83.70;;;;;;5058680;28;48448;-67
2022/08/30 04:50:07;;;;;;;6.57;2.53;;;19.80;83.80;;;;;;5058523;28;45276;-67
2022/08/30 04:52:33;;;;;;;7.57;2.65;;;19.70;83.50;;;;;;5059275;28;45571;-67
2022/08/30 04:55:00;;;;;;;6.10;3.30;;;19.70;84.20;;;;;;5060146;28;45324;-67
2022/08/30 04:57:28;;;;;;;7.35;2.70;;;19.80;83.90;;;;;;5057317;28;46540;-67
2022/08/30 04:59:55;;;;;;;5.68;2.45;;;19.80;84.10;;;;;;5054804;28;45396;-67
2022/08/30 05:02:22;;;;;;;7.00;2.45;;;19.70;83.60;;;;;;5060754;28;45492;-67
2022/08/30 05:07:34;;;;;;;7.45;2.70;;;19.80;83.40;;;;;;5058253;28;45246;-66
2022/08/30 05:10:01;;;;;;;5.95;2.75;;;19.80;83.50;;;;;;5056032;28;45346;-67
2022/08/30 05:12:28;;;;;;;5.80;2.97;;;19.80;84.10;;;;;;5059079;28;45516;-67
2022/08/30 05:14:57;;;;;;;5.05;2.30;;;19.80;84.00;;;;;;5057874;28;45443;-67
2022/08/30 05:17:24;;;;;;;6.65;2.53;;;19.80;84.60;;;;;;5057672;28;46704;-67
2022/08/30 05:19:50;;;;;;;6.07;2.65;;;19.90;83.70;;;;;;5058398;28;45438;-67
2022/08/30 05:22:17;;;;;;;4.25;2.38;;;19.90;83.70;;;;;;5056049;28;45393;-67
2022/08/30 05:24:45;;;;;;;8.10;3.10;;;19.90;83.90;;;;;;5059509;28;45500;-67
2022/08/30 05:27:12;;;;;;;9.85;2.80;;;19.90;83.80;;;;;;5056936;28;45459;-67
2022/08/30 05:29:39;;;;;;;9.27;2.72;;;19.90;84.20;;;;;;5058250;28;45222;-67
2022/08/30 05:32:06;;;;;;;8.65;2.88;;;19.90;84.20;;;;;;5057838;28;45275;-67
2022/08/30 05:34:33;;;;;;;9.25;2.70;;;19.90;83.70;;;;;;5058334;28;45811;-67
2022/08/30 05:37:01;;;;;;;7.45;2.58;;;20.00;83.60;;;;;;5057793;28;47085;-67
2022/08/30 05:39:28;;;;;;;7.40;2.45;;;20.00;84.00;;;;;;5057414;28;45280;-66
2022/08/30 05:41:57;;;;;;;5.65;2.58;;;20.00;84.00;;;;;;5057982;28;45690;-67
2022/08/30 05:44:24;;;;;;;9.30;2.75;;;19.90;84.50;;;;;;5056688;28;45339;-67
2022/08/30 05:46:51;;;;;;;7.90;2.88;;;19.70;85.70;;;;;;5058154;28;47504;-67
2022/08/30 05:49:18;;;;;;;6.32;2.75;;;19.80;85.80;;;;;;5058396;28;45252;-67
2022/08/30 05:51:44;;;;;;;6.05;2.78;;;19.80;85.70;;;;;;5058167;28;45272;-67
2022/08/30 05:54:12;;;;;;;6.00;2.92;;;19.80;85.00;;;;;;5057409;28;45277;-67
2022/08/30 05:56:41;;;;;;;6.80;2.90;;;19.80;85.40;;;;;;5005131;28;1120222;-67
2022/08/30 05:59:09;;;;;;;12.77;3.15;;;19.90;85.10;;;;;;5050490;28;45327;-67
2022/08/30 06:01:38;;;;;;;10.45;3.35;;;20.00;84.40;;;;;;5060030;28;45519;-67
2022/08/30 06:04:07;;;;;;;6.60;2.95;;;20.00;84.40;;;;;;5058802;28;45530;-68
2022/08/30 06:06:35;;;;;;;7.00;2.92;;;20.00;85.10;;;;;;5056617;28;46955;-67
2022/08/30 06:09:02;;;;;;;10.27;3.20;;;20.10;84.20;;;;;;5058418;28;45747;-67
2022/08/30 06:11:29;;;;;;;10.77;2.92;;;20.10;84.00;;;;;;5059501;28;45501;-67
2022/08/30 06:13:57;;;;;;;7.50;2.90;;;20.30;83.00;;;;;;5055687;28;45267;-67
2022/08/30 06:16:27;;;;;;;11.38;3.33;;;20.20;83.60;;;;;;5059987;28;47103;-68
2022/08/30 06:18:55;;;;;;;8.05;3.20;;;20.20;84.00;;;;;;5057756;28;45577;-68
2022/08/30 06:21:25;;;;;;;7.65;3.08;;;20.20;83.80;;;;;;5060206;28;45460;-67
2022/08/30 06:23:53;;;;;;;10.70;3.10;;;20.20;84.00;;;;;;5059571;28;45259;-67
2022/08/30 06:26:20;;;;;;;13.40;3.28;;;20.30;83.80;;;;;;5060727;28;46724;-67
2022/08/30 06:28:48;;;;;;;16.15;3.58;;;20.30;83.60;;;;;;5059182;28;45531;-68
2022/08/30 06:31:17;;;;;;;5.90;2.33;;;20.30;83.70;;;;;;5062241;28;45524;-67
2022/08/30 06:33:45;;;;;;;14.80;3.30;;;20.30;83.20;;;;;;5062652;28;45442;-67
2022/08/30 06:36:14;;;;;;;7.88;3.10;;;20.40;82.90;;;;;;5060433;28;47655;-67
2022/08/30 06:38:42;;;;;;;10.02;2.78;;;20.30;83.60;;;;;;5053808;28;45498;-67
2022/08/30 06:41:11;;;;;;;9.85;2.80;;;20.40;82.70;;;;;;5058669;28;45425;-68
2022/08/30 06:43:37;;;;;;;7.50;3.25;;;20.40;83.40;;;;;;5061460;28;45447;-67
2022/08/30 06:46:06;;;;;;;9.15;2.90;;;20.50;82.60;;;;;;5060688;28;46094;-67
2022/08/30 06:48:33;;;;;;;8.75;2.78;;;20.50;83.10;;;;;;5060301;28;45512;-68
2022/08/30 06:51:01;;;;;;;6.32;2.35;;;20.50;81.80;;;;;;5059457;28;45490;-68
2022/08/30 06:53:28;;;;;;;10.65;2.75;;;20.50;82.20;;;;;;5061067;28;45670;-68
2022/08/30 06:55:57;;;;;;;9.13;2.95;;;20.50;81.50;;;;;;5062397;28;47281;-68
2022/08/30 06:58:24;;;;;;;9.25;2.88;;;20.60;81.60;;;;;;5061210;28;45395;-67
2022/08/30 07:00:51;;;;;;;12.98;3.35;;;20.70;81.50;;;;;;5063394;28;45311;-68
2022/08/30 07:03:18;;;;;;;6.55;2.97;;;20.50;82.10;;;;;;5060975;28;45562;-67
2022/08/30 07:05:44;;;;;;;7.07;2.60;;;20.50;81.90;;;;;;5059331;28;47291;-67
2022/08/30 07:08:13;;;;;;;10.05;3.10;;;20.70;82.60;;;;;;5058980;28;45643;-67
2022/08/30 07:10:41;;;;;;;10.77;3.47;;;20.70;80.80;;;;;;5057600;28;45425;-67
2022/08/30 07:13:08;;;;;;;7.20;3.35;;;20.60;81.90;;;;;;5061447;28;45420;-67
2022/08/30 07:15:35;;;;;;;6.40;2.75;;;20.60;81.10;;;;;;5060213;28;47388;-68
2022/08/30 07:20:47;;;;;;;13.32;2.90;;;20.90;80.10;;;;;;5056514;28;45421;-67
2022/08/30 07:23:15;;;;;;;6.72;2.75;;;20.90;79.50;;;;;;5058136;28;45553;-67
2022/08/30 07:25:42;;;;;;;9.30;3.08;;;21.00;79.70;;;;;;5062161;28;45577;-68
2022/08/30 07:28:09;;;;;;;6.68;2.25;;;21.10;79.20;;;;;;5059277;28;45383;-68
2022/08/30 07:30:36;;;;;;;6.38;3.10;;;21.30;78.50;;;;;;5060128;28;45346;-67
2022/08/30 07:33:03;;;;;;;7.07;2.67;;;21.40;78.90;;;;;;5062817;28;45693;-68
2022/08/30 07:35:31;;;;;;;9.35;2.85;;;21.30;78.20;;;;;;5064533;28;47656;-67
2022/08/30 07:37:58;;;;;;;5.38;2.25;;;21.40;77.70;;;;;;5062004;28;45479;-68
2022/08/30 07:40:26;;;;;;;10.13;2.20;;;21.60;77.10;;;;;;5059593;28;45340;-67
2022/08/30 07:42:53;;;;;;;7.82;2.40;;;21.50;77.00;;;;;;5061643;28;45270;-67
2022/08/30 07:45:20;;;;;;;3.33;2.00;;;21.50;77.30;;;;;;5061240;28;46544;-67
2022/08/30 07:47:47;;;;;;;6.22;2.10;;;21.60;76.70;;;;;;5060381;28;45799;-67
2022/08/30 07:50:14;;;;;;;12.98;2.45;;;21.80;75.90;;;;;;5059854;28;45362;-67
2022/08/30 07:52:41;;;;;;;7.75;2.58;;;21.80;76.30;;;;;;5060282;28;45729;-67
2022/08/30 07:55:09;;;;;;;7.13;2.20;;;21.70;76.50;;;;;;5059422;28;46690;-67
2022/08/30 07:57:37;;;;;;;8.25;2.40;;;21.70;77.80;;;;;;5060305;28;45292;-67
2022/08/30 08:00:05;;;;;;;4.18;2.00;;;21.90;75.60;;;;;;5060506;28;45659;-68
2022/08/30 08:02:32;;;;;;;10.45;2.58;;;22.20;74.20;;;;;;5062600;28;45595;-67
2022/08/30 08:04:59;;;;;;;6.28;2.20;;;22.30;74.80;;;;;;5060959;28;46367;-68
2022/08/30 08:07:26;;;;;;;3.90;2.10;;;22.30;74.40;;;;;;5055686;28;46037;-67
2022/08/30 08:09:53;;;;;;;9.02;2.10;;;22.40;73.60;;;;;;5064096;28;45336;-67
2022/08/30 08:12:20;;;;;;;4.38;2.10;;;22.40;73.60;;;;;;5059610;28;45285;-68
2022/08/30 08:14:48;;;;;;;9.68;2.22;;;22.30;74.20;;;;;;5060703;28;46162;-67
2022/08/30 08:17:15;;;;;;;9.13;2.20;;;22.40;73.30;;;;;;5056964;28;46199;-67
2022/08/30 08:19:42;;;;;;;6.35;2.30;;;22.40;73.10;;;;;;5061046;28;45390;-67
2022/08/30 08:22:09;;;;;;;5.53;2.25;;;22.40;73.60;;;;;;5060411;28;45418;-67
2022/08/30 08:24:37;;;;;;;14.57;2.58;;;22.30;73.60;;;;;;5058519;28;46599;-67
2022/08/30 08:27:03;;;;;;;7.22;2.22;;;22.50;72.80;;;;;;5060518;28;45760;-67
2022/08/30 08:29:30;;;;;;;5.60;2.40;;;22.40;70.80;;;;;;5060203;28;45536;-68
2022/08/30 08:31:59;;;;;;;2.20;1.70;;;22.50;72.90;;;;;;5058902;28;45354;-68
2022/08/30 08:34:26;;;;;;;3.20;1.83;;;22.50;70.80;;;;;;5059959;28;48124;-67
2022/08/30 08:36:53;;;;;;;3.47;1.80;;;22.60;72.00;;;;;;5060183;28;45279;-68
2022/08/30 08:39:20;;;;;;;7.45;2.60;;;22.60;72.60;;;;;;5059500;28;45487;-67
2022/08/30 08:41:56;;;;;;;9.70;1.90;;;22.70;70.50;;;;;;5060524;28;45201;-67
2022/08/30 08:44:34;;;;;;;4.82;1.80;;;22.70;70.30;;;;;;5062201;28;45369;-68
2022/08/30 08:47:09;;;;;;;4.53;1.90;;;22.60;70.60;;;;;;5060083;28;45347;-67
2022/08/30 08:49:39;;;;;;;7.75;2.70;;;22.70;72.20;;;;;;5058051;28;45523;-67
2022/08/30 08:54:56;;;;;;;5.25;2.10;;;22.70;70.70;;;;;;5055744;28;45589;-67
2022/08/30 08:57:23;;;;;;;7.35;2.10;;;22.80;70.10;;;;;;5058801;28;45403;-67
2022/08/30 08:59:53;;;;;;;10.05;2.03;;;22.70;69.00;;;;;;5059166;28;45372;-68
2022/08/30 09:02:24;;;;;;;5.90;2.20;;;22.50;69.10;;;;;;5060684;28;45388;-67
2022/08/30 09:04:57;;;;;;;12.23;3.10;;;22.50;70.40;;;;;;5059673;28;45404;-68
2022/08/30 09:07:26;;;;;;;6.88;2.10;;;22.60;69.10;;;;;;5057959;28;45347;-68
2022/08/30 09:09:53;;;;;;;9.60;2.15;;;22.70;69.80;;;;;;5058622;28;45348;-68
2022/08/30 09:12:20;;;;;;;7.25;2.30;;;22.80;68.60;;;;;;5053259;28;45432;-68
2022/08/30 09:14:51;;;;;;;7.03;2.35;;;22.60;68.90;;;;;;5059413;28;47348;-68
2022/08/30 09:17:19;;;;;;;5.28;2.08;;;22.70;69.10;;;;;;5061618;28;45806;-67
2022/08/30 09:19:58;;;;;;;2.47;1.67;;;22.90;68.90;;;;;;5059650;28;45230;-67
2022/08/30 09:22:31;;;;;;;6.47;2.00;;;23.00;67.70;;;;;;5058172;28;45748;-68
2022/08/30 09:25:02;;;;;;;11.27;2.45;;;22.60;67.80;;;;;;5056997;28;47444;-68
2022/08/30 09:27:32;;;;;;;9.77;2.17;;;22.50;68.50;;;;;;5056315;28;45510;-67
2022/08/30 09:30:03;;;;;;;7.03;1.92;;;22.50;68.50;;;;;;5058928;28;45476;-68
2022/08/30 09:32:34;;;;;;;8.40;1.98;;;22.50;68.90;;;;;;5059370;28;45412;-68
2022/08/30 09:35:03;;;;;;;6.80;2.05;;;22.60;67.80;;;;;;5062438;28;45446;-67
2022/08/30 09:37:39;;;;;;;6.50;2.40;;;22.80;67.40;;;;;;5057555;28;45465;-68
2022/08/30 09:40:13;;;;;;;4.28;1.85;;;22.80;66.70;;;;;;5056494;28;45479;-68
2022/08/30 09:42:41;;;;;;;5.50;2.25;;;22.70;67.00;;;;;;5053542;28;45611;-68
2022/08/30 09:45:19;;;;;;;6.95;2.05;;;22.70;67.70;;;;;;5054414;28;45433;-68
2022/08/30 09:47:46;;;;;;;7.10;2.10;;;22.80;65.70;;;;;;5053175;28;45491;-68
2022/08/30 09:50:16;;;;;;;9.25;2.30;;;22.90;65.90;;;;;;5061735;28;45292;-68
2022/08/30 09:52:56;;;;;;;14.93;2.47;;;23.00;66.60;;;;;;5058335;28;45413;-68
2022/08/30 09:55:42;;;;;;;6.43;2.42;;;23.00;66.30;;;;;;5060283;28;46571;-68
2022/08/30 09:58:15;;;;;;;9.70;2.03;;;23.00;65.20;;;;;;5058624;28;45365;-68
2022/08/30 10:00:47;;;;;;;6.25;2.03;;;23.00;65.70;;;;;;5056697;28;45646;-68
2022/08/30 10:03:23;;;;;;;5.60;2.00;;;23.10;64.80;;;;;;5059794;28;45564;-69
2022/08/30 10:06:02;;;;;;;6.40;2.20;;;23.10;64.40;;;;;;5058185;28;45641;-68
2022/08/30 10:08:40;;;;;;;6.03;2.08;;;23.30;63.30;;;;;;5066266;28;45484;-68
2022/08/30 10:11:15;;;;;;;5.03;2.03;;;23.30;64.20;;;;;;5062516;28;45354;-68
2022/08/30 10:13:55;;;;;;;5.95;1.90;;;23.30;63.70;;;;;;5058867;28;45407;-69
2022/08/30 10:16:32;;;;;;;13.23;2.13;;;23.50;63.40;;;;;;5060647;28;46491;-68
2022/08/30 10:19:09;;;;;;;5.97;2.17;;;23.60;62.20;;;;;;5058664;28;45607;-68
2022/08/30 10:21:43;;;;;;;4.57;1.63;;;23.50;61.60;;;;;;5063411;28;45390;-68
2022/08/30 10:24:27;;;;;;;6.88;1.75;;;23.50;61.40;;;;;;5056262;28;45492;-68
2022/08/30 10:26:58;;;;;;;4.70;1.60;;;23.50;62.20;;;;;;5059677;28;47309;-68
2022/08/30 10:29:30;;;;;;;6.38;2.10;;;23.40;63.40;;;;;;5063133;28;45399;-68
2022/08/30 10:32:01;;;;;;;8.23;2.08;;;23.70;61.70;;;;;;5060170;28;45306;-68
2022/08/30 10:34:34;;;;;;;6.63;2.00;;;23.80;60.20;;;;;;5063486;28;45667;-68
2022/08/30 10:37:07;;;;;;;7.65;2.10;;;23.80;60.20;;;;;;5062451;28;47764;-69
2022/08/30 10:39:40;;;;;;;8.32;1.90;;;23.80;60.20;;;;;;5061212;28;45582;-68
2022/08/30 10:42:12;;;;;;;3.40;1.73;;;23.90;58.80;;;;;;5063784;28;45230;-68
2022/08/30 10:44:43;;;;;;;5.43;1.80;;;23.80;58.40;;;;;;5063852;28;45646;-68
2022/08/30 10:47:23;;;;;;;2.22;1.50;;;23.80;58.10;;;;;;5056953;28;48981;-67
2022/08/30 10:49:55;;;;;;;4.70;1.60;;;23.60;62.70;;;;;;5054800;28;45342;-68
2022/08/30 10:52:31;;;;;;;7.60;1.70;;;23.40;65.20;;;;;;5060017;28;45440;-68
2022/08/30 10:55:01;;;;;;;2.20;1.20;;;23.00;68.30;;;;;;5061456;28;45409;-67
2022/08/30 10:57:28;;;;;;;3.25;1.60;;;22.80;65.80;;;;;;5062051;28;47207;-68
2022/08/30 10:59:59;;;;;;;2.58;1.50;;;22.80;67.20;;;;;;5063135;28;45542;-68
2022/08/30 11:03:10;;;;;;;2.97;1.40;;;22.90;69.20;;;;;;5058087;28;45316;-68
2022/08/30 11:05:57;;;;;;;7.47;1.80;;;22.70;69.10;;;;;;5061099;28;45563;-67
2022/08/30 11:08:41;;;;;;;5.65;1.90;;;22.80;70.50;;;;;;5057313;28;46395;-67
2022/08/30 11:11:20;;;;;;;4.32;1.63;;;22.90;66.90;;;;;;5061192;28;45357;-67
2022/08/30 11:13:48;;;;;;;3.42;1.90;;;23.00;66.00;;;;;;5055821;28;45313;-67
2022/08/30 11:16:17;;;;;;;3.83;1.63;;;22.90;67.60;;;;;;5062230;28;45442;-67
2022/08/30 11:18:47;;;;;;;3.30;1.50;;;22.90;70.00;;;;;;5061372;28;46761;-68
2022/08/30 11:21:22;;;;;;;2.83;1.48;;;22.90;71.10;;;;;;5060187;28;45317;-68
2022/08/30 11:24:03;;;;;;;3.28;1.70;;;22.90;67.80;;;;;;5062550;28;45347;-68
2022/08/30 11:27:01;;;;;;;4.57;2.00;;;22.90;69.80;;;;;;5057221;28;45666;-68
2022/08/30 11:29:36;;;;;;;4.50;1.70;;;23.00;67.00;;;;;;5059950;28;46442;-68
2022/08/30 11:32:44;;;;;;;6.18;1.60;;;22.80;69.00;;;;;;5060272;28;45726;-68
2022/08/30 11:35:31;;;;;;;2.92;1.88;;;22.70;71.40;;;;;;5038964;28;45533;-67
2022/08/30 11:37:59;;;;;;;5.57;1.92;;;22.70;67.90;;;;;;5065556;28;45523;-68
2022/08/30 11:40:52;;;;;;;3.22;1.55;;;23.00;66.10;;;;;;5059841;28;47232;-68
2022/08/30 11:43:54;;;;;;;2.70;1.52;;;23.00;69.80;;;;;;5059077;28;45300;-68
2022/08/30 11:46:37;;;;;;;2.92;1.52;;;22.80;70.90;;;;;;5059743;28;45408;-67
2022/08/30 11:49:21;;;;;;;3.05;1.63;;;22.70;71.40;;;;;;5060216;28;45415;-68
2022/08/30 11:52:06;;;;;;;8.43;1.73;;;22.90;66.10;;;;;;5058307;28;46358;-68
2022/08/30 11:54:43;;;;;;;4.72;1.75;;;22.80;68.80;;;;;;5060336;28;45931;-70
2022/08/30 11:57:20;;;;;;;7.97;1.92;;;22.90;67.70;;;;;;5060152;28;45330;-68
2022/08/30 12:00:00;;;;;;;2.55;1.30;;;23.00;69.50;;;;;;5060823;28;45428;-68
2022/08/30 12:02:55;;;;;;;6.15;1.40;;;23.00;70.90;;;;;;5060693;28;48661;-68
2022/08/30 12:05:49;;;;;;;4.65;1.85;;;23.10;71.10;;;;;;5013593;28;45311;-68
2022/08/30 12:08:54;;;;;;;3.42;1.83;;;23.00;70.70;;;;;;5058921;28;45434;-68
2022/08/30 12:12:01;;;;;;;3.42;1.30;;;23.00;64.80;;;;;;5060850;28;45330;-68
2022/08/30 12:14:46;;;;;;;6.60;1.63;;;23.20;68.80;;;;;;5060996;28;46408;-68
2022/08/30 12:20:16;;;;;;;5.45;1.60;;;23.50;66.40;;;;;;5061320;28;45270;-68
2022/08/30 12:22:44;;;;;;;4.13;1.73;;;23.70;67.40;;;;;;5055369;28;45591;-68
2022/08/30 12:25:21;;;;;;;5.30;1.77;;;23.80;68.70;;;;;;5060267;28;46521;-67
2022/08/30 12:27:48;;;;;;;2.08;1.55;;;23.80;64.70;;;;;;5055632;28;45365;-69
2022/08/30 12:30:26;;;;;;;3.78;1.88;;;23.90;68.30;;;;;;5060110;28;45364;-68
2022/08/30 12:32:54;;;;;;;6.68;2.00;;;23.90;66.60;;;;;;5061736;28;45319;-68
2022/08/30 12:35:24;;;;;;;2.53;1.42;;;24.10;62.30;;;;;;5059797;28;46273;-68
2022/08/30 12:38:04;;;;;;;3.42;1.58;;;24.10;67.70;;;;;;5056692;28;45281;-68
2022/08/30 12:40:33;;;;;;;2.53;1.55;;;24.20;69.70;;;;;;5053474;28;45512;-68
2022/08/30 12:43:06;;;;;;;4.82;2.13;;;24.20;68.80;;;;;;5063604;28;45562;-68
2022/08/30 12:45:38;;;;;;;3.20;1.60;;;24.10;67.30;;;;;;5057820;28;46076;-67
2022/08/30 12:48:08;;;;;;;5.88;1.60;;;24.20;68.30;;;;;;5058144;28;45675;-68
2022/08/30 12:50:50;;;;;;;2.55;1.65;;;24.30;66.10;;;;;;5060590;28;45282;-68
2022/08/30 12:53:23;;;;;;;4.00;1.67;;;24.20;66.90;;;;;;5056830;28;45566;-68
2022/08/30 12:55:53;;;;;;;3.40;1.90;;;24.10;67.60;;;;;;5060183;28;45499;-68
2022/08/30 12:58:36;;;;;;;3.78;1.70;;;24.20;62.90;;;;;;5058645;28;45465;-67
2022/08/30 13:01:32;;;;;;;2.08;1.35;;;24.20;67.60;;;;;;5054665;28;45561;-68
2022/08/30 13:04:02;;;;;;;5.32;1.83;;;24.40;67.90;;;;;;5010805;28;45564;-68
2022/08/30 13:06:48;;;;;;;2.85;1.50;;;24.30;67.30;;;;;;5058532;28;46381;-68
2022/08/30 13:09:25;;;;;;;3.83;1.70;;;24.30;68.40;;;;;;5057832;28;45264;-68
2022/08/30 13:11:54;;;;;;;3.60;1.92;;;24.50;67.60;;;;;;5060350;28;45555;-68
2022/08/30 13:14:34;;;;;;;4.30;1.77;;;24.60;68.50;;;;;;5057893;28;45413;-69